Time;durP1;ratioP1;P1;durP2;ratioP2;P2;SDS_P1;SDS_P2;PMS_P1;PMS_P2;Temp;Humidity;BMP_temperature;BMP_pressure;BME280_temperature;BME280_humidity;BME280_pressure;Samples;Min_cycle;Max_cycle;Signal;HPM_P1;HPM_P2
2022/04/02 00:01:48;;;;;;;11.10;2.17;;;;;;;0.38;100.00;100165.88;5009682;28;20202;-76
2022/04/02 00:04:16;;;;;;;16.40;3.03;;;;;;;0.35;100.00;100165.72;5023586;28;20224;-77
2022/04/02 00:06:45;;;;;;;10.18;2.03;;;;;;;0.37;100.00;100171.91;5006054;28;20209;-77
2022/04/02 00:09:13;;;;;;;12.20;2.33;;;;;;;0.36;100.00;100181.41;5002634;28;20212;-77
2022/04/02 00:11:41;;;;;;;12.57;2.45;;;;;;;0.34;100.00;100176.97;4998963;28;20204;-76
2022/04/02 00:14:09;;;;;;;8.68;1.77;;;0.70;99.90;;;0.30;100.00;100178.53;5001885;28;20220;-76
2022/04/02 00:16:40;;;;;;;9.15;1.92;;;0.40;99.90;;;0.31;100.00;100186.41;5005650;28;20208;-77
2022/04/02 00:19:08;;;;;;;6.25;1.48;;;0.60;99.90;;;0.29;100.00;100187.16;5006131;28;20230;-76
2022/04/02 00:21:38;;;;;;;7.47;1.63;;;;;;;0.26;100.00;100184.41;4999321;28;20213;-76
2022/04/02 00:24:08;;;;;;;12.75;2.50;;;0.40;99.90;;;0.27;100.00;100201.78;5003802;28;20220;-76
2022/04/02 00:26:36;;;;;;;8.98;1.80;;;;;;;0.26;100.00;100219.09;4994921;28;20680;-76
2022/04/02 00:29:07;;;;;;;10.52;2.13;;;0.50;99.90;;;0.29;100.00;100223.56;5003846;28;20215;-76
2022/04/02 00:31:34;;;;;;;19.15;3.72;;;0.40;99.90;;;0.28;100.00;100222.69;4997123;28;20236;-76
2022/04/02 00:34:03;;;;;;;4.13;1.25;;;0.50;99.90;;;0.27;100.00;100223.50;5001849;28;20223;-76
2022/04/02 00:36:34;;;;;;;7.03;1.52;;;0.50;99.90;;;0.25;100.00;100227.72;5007037;28;20219;-77
2022/04/02 00:39:04;;;;;;;7.30;1.63;;;;;;;0.30;100.00;100233.16;4991372;28;20208;-76
2022/04/02 00:41:33;;;;;;;10.98;2.35;;;;;;;0.30;100.00;100235.75;5012770;28;20673;-76
2022/04/02 00:44:12;;;;;;;10.85;2.20;;;0.50;99.90;;;0.31;100.00;100240.13;5004336;28;20228;-77
2022/04/02 00:46:44;;;;;;;13.00;2.58;;;0.50;99.90;;;0.28;100.00;100238.28;4996880;28;20215;-77
2022/04/02 00:49:15;;;;;;;12.23;2.40;;;0.40;99.90;;;0.24;100.00;100225.94;5014128;28;20203;-76
2022/04/02 00:51:44;;;;;;;2.75;0.82;;;0.60;99.90;;;0.28;100.00;100237.38;5013324;28;20251;-76
2022/04/02 00:54:18;;;;;;;5.70;1.30;;;0.50;99.90;;;0.29;100.00;100237.47;5011847;28;20311;-77
2022/04/02 00:56:47;;;;;;;7.40;1.60;;;0.40;99.90;;;0.31;100.00;100247.94;5023136;28;20215;-76
2022/04/02 00:59:16;;;;;;;5.05;2.60;;;;;;;0.29;100.00;100242.66;5012156;28;20680;-76
2022/04/02 01:01:45;;;;;;;8.77;1.88;;;0.80;99.90;;;0.22;100.00;100230.19;5002845;28;20212;-76
2022/04/02 01:04:14;;;;;;;13.50;2.65;;;;;;;0.24;100.00;100238.94;5010425;28;20235;-76
2022/04/02 01:06:45;;;;;;;4.88;1.15;;;0.60;99.90;;;0.22;100.00;100239.69;5009844;28;20204;-76
2022/04/02 01:09:20;;;;;;;11.70;2.30;;;0.30;99.90;;;0.24;100.00;100251.06;4991750;28;20214;-76
2022/04/02 01:11:54;;;;;;;6.50;1.40;;;;;;;0.26;100.00;100263.31;5002237;28;20235;-76
2022/04/02 01:14:23;;;;;;;7.47;1.63;;;0.20;99.90;;;0.25;100.00;100261.53;5007695;28;20303;-76
2022/04/02 01:16:56;;;;;;;9.43;1.92;;;0.40;99.90;;;0.26;100.00;100255.53;5001136;28;20261;-76
2022/04/02 01:19:26;;;;;;;8.25;1.75;;;;;;;0.21;100.00;100251.81;5011321;28;20212;-76
2022/04/02 01:22:04;;;;;;;6.72;1.50;;;0.40;99.90;;;0.27;100.00;100261.63;5016968;28;20219;-76
2022/04/02 01:24:40;;;;;;;6.28;1.42;;;0.70;99.90;;;0.24;100.00;100267.56;5008806;28;20258;-76
2022/04/02 01:27:08;;;;;;;12.68;2.42;;;;;;;0.24;100.00;100272.75;4998434;28;20203;-76
2022/04/02 01:29:38;;;;;;;11.15;2.20;;;;;;;0.25;100.00;100274.53;5002158;28;20219;-76
2022/04/02 01:32:13;;;;;;;15.15;2.90;;;;;;;0.27;100.00;100274.63;4996636;28;20239;-75
2022/04/02 01:34:43;;;;;;;9.15;1.88;;;0.40;99.90;;;0.24;100.00;100272.75;4993909;28;20217;-76
2022/04/02 01:37:16;;;;;;;20.33;3.78;;;0.50;99.90;;;0.24;100.00;100275.38;4987724;28;20216;-76
2022/04/02 01:39:52;;;;;;;5.72;1.38;;;0.50;99.90;;;0.27;100.00;100279.81;5001006;28;20203;-77
2022/04/02 01:42:24;;;;;;;6.03;1.40;;;0.20;99.90;;;0.25;100.00;100274.53;5008225;28;20204;-77
2022/04/02 01:45:04;;;;;;;6.20;1.35;;;0.50;99.90;;;0.24;100.00;100277.97;5008759;28;20227;-76
2022/04/02 01:48:05;;;;;;;9.15;1.88;;;;;;;0.25;100.00;100279.75;4997443;28;20683;-76
2022/04/02 01:50:59;;;;;;;11.55;2.28;;;;;;;0.25;100.00;100278.84;5008264;28;20252;-76
2022/04/02 01:53:29;;;;;;;12.50;2.35;;;0.60;99.90;;;0.24;100.00;100277.06;5008076;28;20211;-76
2022/04/02 01:55:58;;;;;;;9.38;1.85;;;0.40;99.90;;;0.27;100.00;100285.03;5005645;28;20677;-76
2022/04/02 01:58:40;;;;;;;9.80;1.95;;;;;;;0.25;100.00;100276.25;4994379;28;20568;-76
2022/04/02 02:01:13;;;;;;;7.55;1.63;;;;;;;0.28;100.00;100276.41;5021393;28;20196;-76
2022/04/02 02:03:41;;;;;;;13.48;2.65;;;;;;;0.27;100.00;100272.91;5006043;28;20227;-75
2022/04/02 02:06:10;;;;;;;4.43;1.08;;;0.50;99.90;;;0.28;100.00;100272.09;5008664;28;20204;-76
2022/04/02 02:08:44;;;;;;;2.58;0.80;;;;;;;0.31;100.00;100277.44;4995321;28;20207;-76
2022/04/02 02:11:27;;;;;;;5.45;1.25;;;0.40;99.90;;;0.31;100.00;100266.13;4997443;28;20227;-76
2022/04/02 02:14:21;;;;;;;8.20;1.73;;;0.50;99.90;;;0.29;100.00;100259.97;5014860;28;20259;-76
2022/04/02 02:17:01;;;;;;;6.18;1.35;;;;;;;0.28;100.00;100260.78;4991601;28;20212;-76
2022/04/02 02:19:29;;;;;;;3.15;0.85;;;0.70;99.90;;;0.32;100.00;100262.72;5012629;28;20207;-76
2022/04/02 02:21:58;;;;;;;14.98;2.95;;;;;;;0.29;100.00;100254.78;5009072;28;20213;-76
2022/04/02 02:24:25;;;;;;;9.38;1.85;;;0.50;99.90;;;0.27;100.00;100257.31;5025721;28;20236;-76
2022/04/02 02:26:54;;;;;;;5.95;1.52;;;;;;;0.26;100.00;100257.22;5006469;28;20212;-76
2022/04/02 02:29:30;;;;;;;6.95;1.45;;;0.50;99.90;;;0.27;100.00;100256.41;4992268;28;20207;-76
2022/04/02 02:32:08;;;;;;;10.45;2.13;;;;;;;0.30;100.00;100253.94;4995514;28;20228;-76
2022/04/02 02:37:23;;;;;;;7.45;1.63;;;0.50;99.90;;;0.28;100.00;100260.78;5013199;28;20204;-76
2022/04/02 02:40:00;;;;;;;12.63;2.42;;;;;;;0.28;100.00;100250.38;5012129;28;20215;-76
2022/04/02 02:42:30;;;;;;;4.80;1.13;;;0.50;99.90;;;0.29;100.00;100252.16;5006860;28;20567;-76
2022/04/02 02:45:08;;;;;;;6.38;1.48;;;0.50;99.90;;;0.26;100.00;100245.13;5025472;28;20223;-76
2022/04/02 02:47:36;;;;;;;10.30;2.05;;;0.60;99.90;;;0.27;100.00;100243.41;4982655;28;20201;-76
2022/04/02 02:50:06;;;;;;;3.70;0.93;;;0.50;99.90;;;0.29;100.00;100245.25;5011934;28;20231;-76
2022/04/02 02:52:52;;;;;;;3.92;1.00;;;0.50;99.90;;;0.25;100.00;100239.84;5011584;28;20236;-76
2022/04/02 02:55:21;;;;;;;8.23;1.73;;;0.50;99.90;;;0.27;100.00;100238.22;5000994;28;20227;-76
2022/04/02 02:57:50;;;;;;;12.05;2.40;;;;;;;0.24;100.00;100231.16;5009462;28;20224;-75
2022/04/02 03:00:19;;;;;;;12.65;2.53;;;0.50;99.90;;;0.21;100.00;100227.53;4997030;28;20222;-76
2022/04/02 03:02:52;;;;;;;17.80;3.33;;;0.80;99.90;;;0.24;100.00;100231.16;5012948;28;20196;-76
2022/04/02 03:05:23;;;;;;;9.40;1.85;;;0.50;99.90;;;0.19;100.00;100231.75;5014926;28;20255;-76
2022/04/02 03:07:55;;;;;;;15.30;2.88;;;;;;;0.20;100.00;100234.44;5003679;28;20203;-76
2022/04/02 03:10:33;;;;;;;14.25;2.75;;;;;;;0.21;100.00;100244.00;5008744;28;20203;-76
2022/04/02 03:13:01;;;;;;;11.45;2.22;;;0.60;99.90;;;0.17;100.00;100244.69;5015868;28;20465;-76
2022/04/02 03:15:33;;;;;;;9.25;1.92;;;;;;;0.13;100.00;100242.75;4994175;28;20216;-76
2022/04/02 03:18:08;;;;;;;10.23;2.10;;;0.30;99.90;;;0.15;100.00;100248.03;5013188;28;20226;-76
2022/04/02 03:20:43;;;;;;;8.98;1.90;;;;;;;0.13;100.00;100262.66;5005683;28;20274;-76
2022/04/02 03:23:17;;;;;;;5.35;1.45;;;0.40;99.90;;;0.11;100.00;100252.19;5000084;28;20209;-76
2022/04/02 03:25:46;;;;;;;11.95;2.30;;;;;;;0.11;100.00;100266.91;5000928;28;20215;-76
2022/04/02 03:28:15;;;;;;;9.13;1.95;;;0.10;99.90;;;0.03;100.00;100265.66;5019006;28;20204;-75
2022/04/02 03:30:44;;;;;;;9.63;2.13;;;;;;;0.03;100.00;100268.25;4987999;28;20215;-76
2022/04/02 03:33:14;;;;;;;13.35;2.60;;;0.10;99.90;;;0.01;100.00;100260.38;5003866;28;20597;-76
2022/04/02 03:35:44;;;;;;;12.18;2.50;;;0.20;99.90;;;0.01;100.00;100285.47;4999518;28;20208;-76
2022/04/02 03:38:14;;;;;;;11.82;2.40;;;;;;;0.04;100.00;100290.84;5000788;28;20227;-76
2022/04/02 03:40:44;;;;;;;10.63;2.13;;;;;;;0.06;100.00;100294.41;5000180;28;20201;-76
2022/04/02 03:43:12;;;;;;;6.65;1.50;;;0.40;99.90;;;0.06;100.00;100297.88;4988795;28;20209;-76
2022/04/02 03:45:41;;;;;;;16.52;3.08;;;0.20;99.90;;;0.08;100.00;100298.84;5016324;28;20216;-76
2022/04/02 03:48:10;;;;;;;8.93;1.85;;;0.40;99.90;;;0.06;100.00;100302.19;5004410;28;20204;-76
2022/04/02 03:50:41;;;;;;;15.25;3.58;;;0.40;99.90;;;0.05;100.00;100306.50;5004933;28;20204;-76
2022/04/02 03:53:17;;;;;;;7.50;1.55;;;;;;;0.05;100.00;100316.00;5008219;28;20231;-76
2022/04/02 03:56:00;;;;;;;13.15;2.53;;;0.10;99.90;;;0.03;100.00;100312.44;5011088;28;20200;-76
2022/04/02 03:58:37;;;;;;;15.75;2.95;;;0.40;99.90;;;0.03;100.00;100317.66;4996122;28;20205;-76
2022/04/02 04:01:08;;;;;;;12.40;2.45;;;;;;;-0.02;100.00;100320.88;4998067;28;20210;-76
2022/04/02 04:03:36;;;;;;;7.38;1.58;;;0.30;99.90;;;0.01;100.00;100327.06;5004491;28;20215;-77
2022/04/02 04:06:06;;;;;;;7.53;2.75;;;0.30;99.90;;;-0.04;100.00;100319.91;5010998;28;20675;-77
2022/04/02 04:08:37;;;;;;;8.07;1.75;;;0.20;99.90;;;-0.06;100.00;100326.75;5010854;28;20211;-77
2022/04/02 04:11:06;;;;;;;6.00;1.80;;;;;;;-0.04;100.00;100334.63;5011148;28;20653;-77
2022/04/02 04:13:38;;;;;;;3.88;1.00;;;;;;;-0.11;100.00;100337.72;5011625;28;20232;-77
2022/04/02 04:16:07;;;;;;;7.25;1.58;;;0.20;99.90;;;-0.07;100.00;100347.47;5006973;28;20201;-77
2022/04/02 04:18:38;;;;;;;10.75;2.45;;;0.10;99.90;;;-0.08;100.00;100348.28;5008140;28;20225;-77
2022/04/02 04:21:06;;;;;;;12.35;2.40;;;;;;;-0.10;100.00;100355.09;5007442;28;20204;-77
2022/04/02 04:23:35;;;;;;;8.85;1.83;;;;;;;-0.12;100.00;100357.63;5010216;28;20223;-77
2022/04/02 04:26:06;;;;;;;7.43;1.58;;;0.10;99.90;;;-0.10;100.00;100365.50;5011165;28;20196;-77
2022/04/02 04:28:40;;;;;;;13.95;2.72;;;0.10;99.90;;;-0.11;100.00;100375.00;5009798;28;20200;-76
2022/04/02 04:31:10;;;;;;;15.13;2.90;;;;;;;-0.11;100.00;100368.91;5011355;28;20199;-77
2022/04/02 04:33:38;;;;;;;4.50;1.15;;;0.20;99.90;;;-0.12;100.00;100378.41;5004012;28;20236;-77
2022/04/02 04:36:07;;;;;;;6.80;1.45;;;0.10;99.90;;;-0.12;100.00;100382.72;5010971;28;20210;-77
2022/04/02 04:38:35;;;;;;;9.20;1.92;;;0.20;99.90;;;-0.16;100.00;100383.38;5010496;28;20208;-77
2022/04/02 04:41:09;;;;;;;6.22;1.42;;;0.50;99.90;;;-0.16;100.00;100384.28;5011469;28;20204;-77
2022/04/02 04:43:37;;;;;;;12.65;2.53;;;;;;;-0.16;100.00;100391.19;5010920;28;20227;-78
2022/04/02 04:46:05;;;;;;;4.00;1.05;;;0.10;99.90;;;-0.15;100.00;100398.16;5010459;28;20200;-77
2022/04/02 04:48:38;;;;;;;6.63;1.50;;;0.10;99.90;;;-0.18;100.00;100391.09;4998797;28;20213;-77
2022/04/02 04:51:07;;;;;;;7.05;1.48;;;;;;;-0.18;100.00;100392.81;5010443;28;20200;-77
2022/04/02 04:53:37;;;;;;;5.45;1.27;;;0.10;99.90;;;-0.14;100.00;100397.34;4990932;28;20238;-77
2022/04/02 04:56:08;;;;;;;4.07;1.05;;;0.10;99.90;;;-0.15;100.00;100395.56;4993589;28;20212;-78
2022/04/02 04:58:37;;;;;;;10.82;2.17;;;0.10;99.90;;;-0.14;100.00;100403.44;5002167;28;20220;-77
2022/04/02 05:01:12;;;;;;;6.70;1.65;;;0.00;99.90;;;-0.15;100.00;100398.16;5023455;28;20336;-77
2022/04/02 05:03:41;;;;;;;12.25;3.30;;;0.00;99.90;;;-0.18;100.00;100398.91;5010297;28;20232;-77
2022/04/02 05:06:14;;;;;;;15.45;2.92;;;;;;;-0.20;100.00;100397.03;4993952;28;20200;-77
2022/04/02 05:08:48;;;;;;;9.00;1.92;;;-0.10;99.90;;;-0.17;100.00;100399.78;4993598;28;20210;-77
2022/04/02 05:11:18;;;;;;;7.72;1.67;;;;;;;-0.13;100.00;100409.53;5010219;28;20215;-77
2022/04/02 05:13:51;;;;;;;7.07;1.77;;;;;;;-0.15;100.00;100403.38;5026058;28;20231;-77
2022/04/02 05:16:23;;;;;;;7.45;1.60;;;;;;;-0.15;100.00;100403.38;4994575;28;20208;-77
2022/04/02 05:18:54;;;;;;;8.20;1.75;;;0.20;99.90;;;-0.15;100.00;100388.66;5010333;28;20211;-77
2022/04/02 05:21:23;;;;;;;7.15;1.55;;;0.10;99.90;;;-0.13;100.00;100400.03;5010864;28;20234;-79
2022/04/02 05:23:52;;;;;;;9.38;2.00;;;0.10;99.90;;;-0.09;100.00;100404.56;5004578;28;20229;-81
2022/04/02 05:26:21;;;;;;;8.27;1.75;;;0.20;99.90;;;-0.08;100.00;100395.06;5003723;28;20211;-80
2022/04/02 05:28:59;;;;;;;7.15;1.60;;;;;;;-0.12;100.00;100377.53;5014206;28;20196;-84
2022/04/02 05:31:28;;;;;;;7.43;1.63;;;;;;;-0.12;100.00;100381.03;4995267;28;20213;-82
2022/04/02 05:33:56;;;;;;;9.77;2.00;;;;;;;-0.11;100.00;100382.81;5028919;28;20228;-83
2022/04/02 05:36:25;;;;;;;8.95;1.85;;;;;;;-0.11;100.00;100379.31;5012359;28;20203;-80
2022/04/02 05:38:53;;;;;;;12.52;2.50;;;0.00;99.90;;;-0.14;100.00;100385.25;5021267;28;20201;-79
2022/04/02 05:41:22;;;;;;;8.65;1.83;;;;;;;-0.16;100.00;100384.28;5021771;28;20208;-79
2022/04/02 05:43:50;;;;;;;6.38;1.58;;;;;;;-0.17;100.00;100387.69;5022923;28;20227;-79
2022/04/02 05:46:19;;;;;;;8.30;1.73;;;;;;;-0.20;100.00;100384.94;5037262;28;20208;-79
2022/04/02 05:48:47;;;;;;;10.93;2.15;;;0.10;99.90;;;-0.18;100.00;100403.22;5019621;28;20204;-79
2022/04/02 05:51:15;;;;;;;9.98;2.05;;;0.00;99.90;;;-0.17;100.00;100402.41;5015955;28;20208;-80
2022/04/02 05:53:43;;;;;;;6.47;1.45;;;0.10;99.90;;;-0.16;100.00;100398.97;5016990;28;20240;-79
2022/04/02 05:56:12;;;;;;;7.32;1.60;;;;;;;-0.17;100.00;100408.50;5018290;28;20200;-81
2022/04/02 05:58:41;;;;;;;5.18;1.23;;;;;;;-0.19;100.00;100404.91;5018982;28;20204;-81
2022/04/02 06:01:09;;;;;;;4.70;1.10;;;;;;;-0.20;100.00;100404.84;5018535;28;20684;-79
2022/04/02 06:03:39;;;;;;;7.55;1.63;;;-0.10;99.90;;;-0.22;100.00;100407.34;5021232;28;20224;-80
2022/04/02 06:06:08;;;;;;;11.15;2.20;;;;;;;-0.23;100.00;100413.38;5021638;28;20199;-79
2022/04/02 06:08:36;;;;;;;6.53;1.50;;;0.00;99.90;;;-0.15;100.00;100426.75;5023512;28;20203;-80
2022/04/02 06:11:07;;;;;;;11.13;2.22;;;;;;;-0.19;100.00;100427.41;5017269;28;20204;-80
2022/04/02 06:13:36;;;;;;;8.98;1.85;;;;;;;-0.20;100.00;100423.03;5017525;28;20243;-80
2022/04/02 06:16:04;;;;;;;11.88;2.33;;;0.10;99.90;;;-0.17;100.00;100426.69;5016532;28;20211;-80
2022/04/02 06:18:32;;;;;;;12.88;2.53;;;;;;;-0.17;100.00;100425.78;5010178;28;20216;-80
2022/04/02 06:21:03;;;;;;;9.57;2.03;;;;;;;-0.18;100.00;100424.00;5007215;28;20226;-80
2022/04/02 06:23:32;;;;;;;11.20;2.25;;;0.10;99.90;;;-0.16;100.00;100431.06;5017786;28;20224;-79
2022/04/02 06:26:01;;;;;;;8.15;1.77;;;;;;;-0.14;100.00;100441.53;5018846;28;20215;-80
2022/04/02 06:28:30;;;;;;;10.90;2.17;;;0.10;99.90;;;-0.19;100.00;100430.91;5019218;28;20215;-79
2022/04/02 06:30:58;;;;;;;8.27;1.73;;;0.10;99.90;;;-0.19;100.00;100438.69;5017271;28;20208;-80
2022/04/02 06:33:34;;;;;;;9.88;1.95;;;;;;;-0.13;100.00;100444.22;4996850;28;20258;-79
2022/04/02 06:36:03;;;;;;;9.90;1.98;;;0.10;99.90;;;-0.20;100.00;100443.81;5009777;28;20200;-79
2022/04/02 06:38:31;;;;;;;5.85;1.30;;;0.40;99.90;;;-0.17;100.00;100460.47;5015532;28;20196;-80
2022/04/02 06:40:58;;;;;;;4.90;1.20;;;0.10;99.90;;;-0.18;100.00;100462.97;5016804;28;20207;-80
2022/04/02 06:43:32;;;;;;;4.45;1.05;;;;;;;-0.16;100.00;100469.16;5017661;28;20236;-80
2022/04/02 06:46:03;;;;;;;12.57;2.53;;;0.10;99.90;;;-0.19;100.00;100479.41;5015837;28;20215;-80
2022/04/02 06:48:33;;;;;;;4.35;1.10;;;0.20;99.90;;;-0.20;100.00;100490.59;5017810;28;20200;-80
2022/04/02 06:51:02;;;;;;;6.35;1.40;;;0.20;99.90;;;-0.22;100.00;100495.72;5016649;28;20222;-79
2022/04/02 06:53:31;;;;;;;6.50;1.45;;;;;;;-0.24;100.00;100499.06;5020178;28;20251;-80
2022/04/02 06:55:59;;;;;;;6.32;1.42;;;;;;;-0.27;100.00;100504.97;5014384;28;20595;-79
2022/04/02 06:58:36;;;;;;;14.70;2.80;;;0.00;99.90;;;-0.26;100.00;100506.75;5016905;28;20212;-80
2022/04/02 07:01:04;;;;;;;12.88;2.53;;;0.10;99.90;;;-0.23;100.00;100513.81;5024604;28;20208;-80
2022/04/02 07:03:34;;;;;;;14.75;2.88;;;0.10;99.90;;;-0.27;100.00;100523.16;5017287;28;20243;-80
2022/04/02 07:06:03;;;;;;;9.40;1.95;;;0.10;99.90;;;-0.19;100.00;100533.97;5016841;28;20207;-79
2022/04/02 07:08:32;;;;;;;9.68;1.92;;;;;;;-0.14;100.00;100537.72;5016713;28;20200;-81
2022/04/02 07:11:01;;;;;;;14.25;3.05;;;0.50;99.90;;;-0.14;100.00;100545.50;5010222;28;20223;-78
2022/04/02 07:13:30;;;;;;;9.65;2.03;;;0.10;99.90;;;-0.19;100.00;100544.38;5014779;28;20232;-80
2022/04/02 07:16:04;;;;;;;7.10;1.52;;;-0.20;99.90;;;-0.07;100.00;100555.41;5015156;28;20200;-80
2022/04/02 07:18:35;;;;;;;6.55;1.50;;;0.20;99.90;;;-0.12;100.00;100562.97;5010612;28;20212;-80
2022/04/02 07:21:03;;;;;;;5.72;1.33;;;0.20;99.90;;;-0.25;100.00;100551.84;5015358;28;20204;-80
2022/04/02 07:23:32;;;;;;;7.03;1.48;;;0.20;99.90;;;-0.21;100.00;100566.78;5016475;28;20232;-80
2022/04/02 07:26:01;;;;;;;12.40;2.45;;;0.10;99.90;;;-0.20;100.00;100571.16;5013794;28;20219;-80
2022/04/02 07:28:29;;;;;;;9.50;1.95;;;0.10;99.90;;;-0.21;100.00;100575.47;5012578;28;20219;-79
2022/04/02 07:30:57;;;;;;;8.43;1.80;;;0.20;99.90;;;-0.21;100.00;100590.16;5016314;28;20223;-79
2022/04/02 07:33:27;;;;;;;6.82;1.40;;;-0.10;99.90;;;-0.21;100.00;100597.97;5017639;28;20224;-80
2022/04/02 07:36:08;;;;;;;8.82;1.77;;;0.00;99.90;;;-0.25;100.00;100596.91;5012114;28;20199;-79
2022/04/02 07:39:05;;;;;;;9.38;1.92;;;0.10;99.90;;;-0.14;100.00;100616.56;5013209;28;20219;-80
2022/04/02 07:42:01;;;;;;;6.28;1.40;;;0.20;99.90;;;-0.19;100.00;100618.03;5011526;28;20207;-79
2022/04/02 07:44:53;;;;;;;6.90;1.55;;;0.20;99.90;;;-0.13;100.00;100631.38;5001156;28;20262;-80
2022/04/02 07:47:25;;;;;;;32.60;5.82;;;0.20;99.90;;;-0.10;100.00;100644.53;5010799;28;20211;-79
2022/04/02 07:50:01;;;;;;;10.27;2.10;;;0.20;99.90;;;-0.10;100.00;100646.22;5009288;28;20212;-80
2022/04/02 07:52:32;;;;;;;12.27;2.45;;;0.20;99.90;;;-0.02;100.00;100651.03;5017013;28;20218;-79
2022/04/02 07:55:07;;;;;;;6.28;1.42;;;0.30;99.90;;;-0.01;100.00;100665.81;5020186;28;20227;-80
2022/04/02 07:57:51;;;;;;;8.93;1.85;;;0.30;99.90;;;-0.04;100.00;100657.84;5016283;28;20212;-80
2022/04/02 08:00:22;;;;;;;8.80;1.85;;;0.30;99.90;;;-0.12;100.00;100658.25;5015451;28;20208;-79
2022/04/02 08:02:51;;;;;;;13.38;2.63;;;;;;;-0.01;100.00;100672.72;5017311;28;20232;-80
2022/04/02 08:05:22;;;;;;;10.48;2.13;;;0.40;99.90;;;0.07;100.00;100679.28;5002213;28;20242;-79
2022/04/02 08:08:02;;;;;;;8.80;1.83;;;;;;;0.02;100.00;100674.63;5001057;28;20211;-79
2022/04/02 08:10:37;;;;;;;13.48;2.63;;;;;;;0.09;100.00;100677.66;4996519;28;20200;-81
2022/04/02 08:13:23;;;;;;;9.63;1.95;;;0.40;99.90;;;0.05;100.00;100673.09;5009840;28;20266;-80
2022/04/02 08:16:15;;;;;;;7.90;1.83;;;0.40;99.90;;;0.14;100.00;100677.91;4993809;28;20235;-80
2022/04/02 08:18:47;;;;;;;7.35;1.60;;;0.50;99.90;;;0.25;100.00;100700.19;5013182;28;20211;-81
2022/04/02 08:21:21;;;;;;;8.70;1.92;;;0.50;99.90;;;0.33;100.00;100706.69;4997305;28;20651;-81
2022/04/02 08:24:09;;;;;;;12.13;2.45;;;0.70;99.90;;;0.29;100.00;100696.94;5004292;28;20230;-81
2022/04/02 08:27:01;;;;;;;14.18;2.83;;;0.50;99.90;;;0.24;100.00;100686.28;5027756;28;20207;-81
2022/04/02 08:30:07;;;;;;;13.57;2.67;;;0.60;99.90;;;0.25;100.00;100681.97;4978186;28;20216;-81
2022/04/02 08:33:12;;;;;;;17.20;3.28;;;0.60;99.90;;;0.29;100.00;100695.22;5011793;28;20218;-79
2022/04/02 08:36:08;;;;;;;14.90;2.95;;;0.50;99.90;;;0.27;100.00;100689.06;5008237;28;20232;-80
2022/04/02 08:39:03;;;;;;;32.30;5.97;;;0.50;99.90;;;0.30;100.00;100702.22;5006837;28;20208;-80
2022/04/02 08:42:05;;;;;;;9.82;1.98;;;0.60;99.90;;;0.45;100.00;100714.25;5011271;28;20205;-82
2022/04/02 08:45:15;;;;;;;18.80;3.53;;;0.50;99.90;;;0.39;100.00;100706.13;5012305;28;20219;-80
2022/04/02 08:48:34;;;;;;;13.10;2.55;;;0.40;99.90;;;0.19;100.00;100698.16;5008038;28;20204;-80
2022/04/02 08:51:42;;;;;;;9.25;1.90;;;0.40;99.90;;;0.36;100.00;100709.47;4988383;28;20216;-80
2022/04/02 08:54:25;;;;;;;12.90;2.55;;;0.50;99.90;;;0.24;100.00;100686.28;5003428;28;20235;-80
2022/04/02 08:57:11;;;;;;;15.27;2.92;;;0.50;99.90;;;0.29;100.00;100697.84;5007389;28;20196;-80
2022/04/02 08:59:41;;;;;;;12.82;2.58;;;0.60;99.90;;;0.32;100.00;100700.59;4992131;28;20222;-80
2022/04/02 09:02:49;;;;;;;14.07;2.75;;;0.50;99.90;;;0.26;100.00;100700.25;5005725;28;20220;-79
2022/04/02 09:05:59;;;;;;;10.73;2.15;;;0.60;99.90;;;0.34;100.00;100718.88;5008967;28;20242;-80
2022/04/02 09:08:52;;;;;;;16.45;3.08;;;0.60;99.90;;;0.46;100.00;100724.75;5009251;28;20542;-80
2022/04/02 09:12:25;;;;;;;12.40;2.45;;;0.70;99.90;;;0.28;100.00;100696.03;5009469;28;20222;-80
2022/04/02 09:14:57;;;;;;;11.85;2.35;;;0.70;99.90;;;0.54;100.00;100715.66;5017249;28;20232;-81
2022/04/02 09:17:50;;;;;;;17.90;3.45;;;0.70;99.90;;;0.51;100.00;100720.69;5012011;28;20288;-81
2022/04/02 09:20:35;;;;;;;13.40;2.63;;;0.70;99.90;;;0.43;100.00;100721.09;5009269;28;20208;-81
2022/04/02 09:23:17;;;;;;;12.95;2.60;;;0.80;99.90;;;0.47;100.00;100725.66;5010806;28;20215;-80
2022/04/02 09:26:10;;;;;;;13.25;2.55;;;0.80;99.90;;;0.52;100.00;100724.19;5007305;28;20235;-81
2022/04/02 09:28:56;;;;;;;13.27;2.63;;;0.70;99.90;;;0.42;100.00;100715.00;5005426;28;20207;-79
2022/04/02 09:32:05;;;;;;;14.88;3.97;;;0.70;99.90;;;0.57;100.00;100721.00;5016696;28;20222;-80
2022/04/02 09:35:14;;;;;;;12.30;2.47;;;0.80;99.90;;;0.35;100.00;100704.19;5004064;28;20231;-80
2022/04/02 09:38:26;;;;;;;14.80;2.72;;;0.60;99.90;;;0.37;100.00;100713.84;5016305;28;20204;-80
2022/04/02 09:41:54;;;;;;;10.73;2.17;;;0.70;99.90;;;0.49;100.00;100732.72;5004800;28;20211;-81
2022/04/02 09:45:01;;;;;;;17.23;3.22;;;0.70;99.90;;;0.47;100.00;100712.63;5003659;28;20226;-80
2022/04/02 09:47:38;;;;;;;9.00;1.80;;;0.70;99.90;;;0.59;100.00;100734.09;4988393;28;20204;-81
2022/04/02 09:50:24;;;;;;;14.00;2.80;;;0.80;99.90;;;0.59;100.00;100728.91;5004364;28;20418;-81
2022/04/02 09:53:06;;;;;;;15.18;2.97;;;0.80;99.90;;;0.57;100.00;100723.63;5004100;28;20209;-81
2022/04/02 09:55:56;;;;;;;6.07;1.35;;;1.00;99.90;;;0.64;100.00;100717.94;5001443;28;20223;-82
2022/04/02 09:58:58;;;;;;;12.18;2.60;;;0.90;99.90;;;0.63;100.00;100716.13;5011827;28;20203;-80
2022/04/02 10:01:38;;;;;;;18.25;4.13;;;0.90;99.90;;;0.79;100.00;100728.25;5008968;28;20211;-81
2022/04/02 10:04:31;;;;;;;8.38;1.75;;;1.00;99.90;;;0.79;100.00;100725.66;5016645;28;20220;-81
2022/04/02 10:07:04;;;;;;;16.05;3.08;;;1.10;99.90;;;0.94;100.00;100725.56;5012909;28;20205;-81
2022/04/02 10:09:36;;;;;;;10.48;2.13;;;1.10;99.90;;;0.99;100.00;100734.50;5008032;28;20208;-81
2022/04/02 10:12:07;;;;;;;11.07;2.25;;;1.10;99.90;;;1.03;100.00;100733.84;5027448;28;20212;-81
2022/04/02 10:14:36;;;;;;;10.85;2.13;;;;;;;1.01;100.00;100721.56;5007201;28;20226;-80
2022/04/02 10:17:06;;;;;;;15.10;2.92;;;1.20;99.90;;;1.03;100.00;100722.53;5009021;28;20212;-82
2022/04/02 10:19:40;;;;;;;9.48;1.90;;;1.20;99.90;;;0.91;100.00;100697.66;5009968;28;20232;-81
2022/04/02 10:22:12;;;;;;;14.77;2.75;;;1.20;99.90;;;0.95;100.00;100701.31;5010326;28;20211;-81
2022/04/02 10:24:49;;;;;;;9.52;1.92;;;1.20;99.90;;;0.88;100.00;100694.00;5011645;28;20236;-81
2022/04/02 10:27:35;;;;;;;27.58;4.97;;;1.20;99.90;;;1.03;100.00;100696.47;5013937;28;20208;-81
2022/04/02 10:30:12;;;;;;;10.38;2.13;;;1.20;99.90;;;0.99;100.00;100694.53;5006581;28;20231;-81
2022/04/02 10:32:53;;;;;;;19.40;3.60;;;1.20;99.90;;;0.99;100.00;100694.53;5011605;28;20214;-81
2022/04/02 10:35:27;;;;;;;10.98;2.28;;;1.20;99.90;;;0.85;100.00;100670.41;5014071;28;20236;-82
2022/04/02 10:38:12;;;;;;;8.43;1.83;;;;;;;0.94;100.00;100666.56;5014659;28;20212;-79
2022/04/02 10:40:52;;;;;;;4.97;1.20;;;1.20;99.90;;;1.18;100.00;100668.59;5011165;28;20212;-81
2022/04/02 10:43:35;;;;;;;9.63;1.90;;;1.40;99.90;;;1.19;100.00;100654.75;5011711;28;20203;-81
2022/04/02 10:46:06;;;;;;;11.00;2.17;;;1.30;99.90;;;1.06;100.00;100641.94;5012517;28;20228;-81
2022/04/02 10:48:52;;;;;;;11.93;2.35;;;1.40;99.90;;;1.24;100.00;100642.88;5006954;28;20199;-82
2022/04/02 10:51:24;;;;;;;10.15;2.05;;;1.50;99.90;;;1.26;100.00;100642.13;5008132;28;20204;-82
2022/04/02 10:54:09;;;;;;;8.02;1.65;;;1.50;99.90;;;1.29;100.00;100649.19;5010243;28;20227;-81
2022/04/02 10:56:45;;;;;;;11.27;2.22;;;1.50;99.90;;;1.29;100.00;100649.19;5013755;28;20203;-81
2022/04/02 10:59:17;;;;;;;19.50;3.70;;;1.60;99.90;;;1.27;100.00;100649.13;5007543;28;20586;-83
2022/04/02 11:01:49;;;;;;;7.57;1.67;;;1.50;99.90;;;1.17;100.00;100623.44;5006069;28;20579;-82
2022/04/02 11:04:53;;;;;;;10.45;2.28;;;1.50;99.90;;;1.41;100.00;100641.13;5011141;28;20242;-80
2022/04/02 11:07:37;;;;;;;23.65;4.47;;;1.70;99.90;;;1.50;100.00;100639.84;5007302;28;20573;-81
2022/04/02 11:10:05;;;;;;;22.23;4.13;;;1.70;99.90;;;1.51;100.00;100628.59;5006684;28;20204;-82